sensor_id;sensor_type;location;lat;lon;timestamp;P1;durP1;ratioP1;P2;durP2;ratioP2
4766;SDS011;2397;53.576;9.746;2023-11-22T00:01:55;3.60;;;2.87;;
4766;SDS011;2397;53.576;9.746;2023-11-22T00:04:22;3.67;;;2.90;;
4766;SDS011;2397;53.576;9.746;2023-11-22T00:06:48;4.53;;;3.03;;
4766;SDS011;2397;53.576;9.746;2023-11-22T00:09:15;2.50;;;2.30;;
4766;SDS011;2397;53.576;9.746;2023-11-22T00:11:41;3.50;;;2.57;;
4766;SDS011;2397;53.576;9.746;2023-11-22T00:14:08;3.30;;;2.80;;
4766;SDS011;2397;53.576;9.746;2023-11-22T00:16:34;3.20;;;2.90;;
4766;SDS011;2397;53.576;9.746;2023-11-22T00:19:03;4.23;;;2.60;;
4766;SDS011;2397;53.576;9.746;2023-11-22T00:21:30;3.40;;;2.90;;
4766;SDS011;2397;53.576;9.746;2023-11-22T00:23:56;6.10;;;2.50;;
4766;SDS011;2397;53.576;9.746;2023-11-22T00:26:24;5.00;;;3.23;;
4766;SDS011;2397;53.576;9.746;2023-11-22T00:28:56;3.37;;;3.07;;
4766;SDS011;2397;53.576;9.746;2023-11-22T00:31:22;5.00;;;2.90;;
4766;SDS011;2397;53.576;9.746;2023-11-22T00:33:50;2.93;;;2.57;;
4766;SDS011;2397;53.576;9.746;2023-11-22T00:36:17;2.90;;;2.57;;
4766;SDS011;2397;53.576;9.746;2023-11-22T00:38:44;3.20;;;2.43;;
4766;SDS011;2397;53.576;9.746;2023-11-22T00:41:10;3.00;;;2.27;;
4766;SDS011;2397;53.576;9.746;2023-11-22T00:43:37;28.77;;;3.60;;
4766;SDS011;2397;53.576;9.746;2023-11-22T00:46:04;12.00;;;2.77;;
4766;SDS011;2397;53.576;9.746;2023-11-22T00:48:30;3.20;;;2.53;;
4766;SDS011;2397;53.576;9.746;2023-11-22T00:50:57;2.67;;;2.43;;
4766;SDS011;2397;53.576;9.746;2023-11-22T00:53:23;5.93;;;2.73;;
4766;SDS011;2397;53.576;9.746;2023-11-22T00:55:50;2.87;;;2.50;;
4766;SDS011;2397;53.576;9.746;2023-11-22T00:58:16;3.10;;;2.77;;
4766;SDS011;2397;53.576;9.746;2023-11-22T01:00:43;4.07;;;2.37;;
4766;SDS011;2397;53.576;9.746;2023-11-22T01:03:10;2.83;;;2.50;;
4766;SDS011;2397;53.576;9.746;2023-11-22T01:05:39;3.87;;;2.90;;
4766;SDS011;2397;53.576;9.746;2023-11-22T01:08:06;2.83;;;2.50;;
4766;SDS011;2397;53.576;9.746;2023-11-22T01:10:33;9.33;;;2.87;;
4766;SDS011;2397;53.576;9.746;2023-11-22T01:12:59;2.97;;;2.67;;
4766;SDS011;2397;53.576;9.746;2023-11-22T01:15:26;3.30;;;3.00;;
4766;SDS011;2397;53.576;9.746;2023-11-22T01:17:53;2.97;;;2.67;;
4766;SDS011;2397;53.576;9.746;2023-11-22T01:20:19;2.67;;;2.47;;
4766;SDS011;2397;53.576;9.746;2023-11-22T01:22:49;2.63;;;2.43;;
4766;SDS011;2397;53.576;9.746;2023-11-22T01:25:15;3.43;;;3.03;;
4766;SDS011;2397;53.576;9.746;2023-11-22T01:27:42;6.60;;;2.67;;
4766;SDS011;2397;53.576;9.746;2023-11-22T01:30:08;3.70;;;2.90;;
4766;SDS011;2397;53.576;9.746;2023-11-22T01:32:35;4.90;;;2.70;;
4766;SDS011;2397;53.576;9.746;2023-11-22T01:35:02;2.90;;;2.40;;
4766;SDS011;2397;53.576;9.746;2023-11-22T01:37:29;3.20;;;2.90;;
4766;SDS011;2397;53.576;9.746;2023-11-22T01:39:57;6.50;;;2.63;;
4766;SDS011;2397;53.576;9.746;2023-11-22T01:42:24;5.47;;;3.57;;
4766;SDS011;2397;53.576;9.746;2023-11-22T01:44:51;2.97;;;2.40;;
4766;SDS011;2397;53.576;9.746;2023-11-22T01:47:18;3.33;;;3.03;;
4766;SDS011;2397;53.576;9.746;2023-11-22T01:49:45;3.53;;;3.00;;
4766;SDS011;2397;53.576;9.746;2023-11-22T01:52:12;4.50;;;3.23;;
4766;SDS011;2397;53.576;9.746;2023-11-22T01:54:39;4.40;;;3.23;;
4766;SDS011;2397;53.576;9.746;2023-11-22T01:57:09;3.90;;;3.17;;
4766;SDS011;2397;53.576;9.746;2023-11-22T01:59:36;3.10;;;2.80;;
4766;SDS011;2397;53.576;9.746;2023-11-22T02:02:04;2.93;;;2.63;;
4766;SDS011;2397;53.576;9.746;2023-11-22T02:04:31;5.80;;;3.20;;
4766;SDS011;2397;53.576;9.746;2023-11-22T02:06:58;3.30;;;2.93;;
4766;SDS011;2397;53.576;9.746;2023-11-22T02:09:26;3.70;;;2.90;;
4766;SDS011;2397;53.576;9.746;2023-11-22T02:11:53;3.20;;;2.80;;
4766;SDS011;2397;53.576;9.746;2023-11-22T02:14:20;3.97;;;2.50;;
4766;SDS011;2397;53.576;9.746;2023-11-22T02:16:46;5.00;;;2.70;;
4766;SDS011;2397;53.576;9.746;2023-11-22T02:19:14;3.20;;;2.70;;
4766;SDS011;2397;53.576;9.746;2023-11-22T02:21:42;3.70;;;3.33;;
4766;SDS011;2397;53.576;9.746;2023-11-22T02:24:10;4.40;;;3.50;;
4766;SDS011;2397;53.576;9.746;2023-11-22T02:26:37;2.60;;;2.40;;
4766;SDS011;2397;53.576;9.746;2023-11-22T02:29:05;4.37;;;3.53;;
4766;SDS011;2397;53.576;9.746;2023-11-22T02:31:32;4.17;;;3.10;;
4766;SDS011;2397;53.576;9.746;2023-11-22T02:34:00;3.13;;;2.83;;
4766;SDS011;2397;53.576;9.746;2023-11-22T02:36:27;6.00;;;2.57;;
4766;SDS011;2397;53.576;9.746;2023-11-22T02:38:53;2.90;;;2.60;;
4766;SDS011;2397;53.576;9.746;2023-11-22T02:41:20;3.03;;;2.73;;
4766;SDS011;2397;53.576;9.746;2023-11-22T02:43:47;3.37;;;2.93;;
4766;SDS011;2397;53.576;9.746;2023-11-22T02:46:13;4.67;;;2.90;;
4766;SDS011;2397;53.576;9.746;2023-11-22T02:48:40;6.13;;;3.00;;
4766;SDS011;2397;53.576;9.746;2023-11-22T02:51:06;3.67;;;3.20;;
4766;SDS011;2397;53.576;9.746;2023-11-22T02:53:34;4.00;;;3.00;;
4766;SDS011;2397;53.576;9.746;2023-11-22T02:56:00;5.27;;;3.47;;
4766;SDS011;2397;53.576;9.746;2023-11-22T02:58:28;5.00;;;3.20;;
4766;SDS011;2397;53.576;9.746;2023-11-22T03:00:56;8.97;;;3.10;;
4766;SDS011;2397;53.576;9.746;2023-11-22T03:03:23;3.10;;;2.57;;
4766;SDS011;2397;53.576;9.746;2023-11-22T03:05:50;5.37;;;3.13;;
4766;SDS011;2397;53.576;9.746;2023-11-22T03:08:16;3.63;;;2.87;;
4766;SDS011;2397;53.576;9.746;2023-11-22T03:10:44;2.93;;;2.60;;
4766;SDS011;2397;53.576;9.746;2023-11-22T03:13:18;3.07;;;2.77;;
4766;SDS011;2397;53.576;9.746;2023-11-22T03:15:45;6.80;;;3.50;;
4766;SDS011;2397;53.576;9.746;2023-11-22T03:18:11;3.07;;;2.53;;
4766;SDS011;2397;53.576;9.746;2023-11-22T03:20:39;5.63;;;3.40;;
4766;SDS011;2397;53.576;9.746;2023-11-22T03:23:05;4.63;;;3.10;;
4766;SDS011;2397;53.576;9.746;2023-11-22T03:25:32;2.63;;;2.43;;
4766;SDS011;2397;53.576;9.746;2023-11-22T03:27:59;4.60;;;3.43;;
4766;SDS011;2397;53.576;9.746;2023-11-22T03:30:28;3.60;;;2.90;;
4766;SDS011;2397;53.576;9.746;2023-11-22T03:32:55;6.60;;;3.87;;
4766;SDS011;2397;53.576;9.746;2023-11-22T03:35:21;4.67;;;2.53;;
4766;SDS011;2397;53.576;9.746;2023-11-22T03:37:48;4.00;;;3.03;;
4766;SDS011;2397;53.576;9.746;2023-11-22T03:40:15;4.60;;;3.60;;
4766;SDS011;2397;53.576;9.746;2023-11-22T03:42:42;3.07;;;2.80;;
4766;SDS011;2397;53.576;9.746;2023-11-22T03:45:11;4.10;;;3.70;;
4766;SDS011;2397;53.576;9.746;2023-11-22T03:47:39;3.77;;;3.33;;
4766;SDS011;2397;53.576;9.746;2023-11-22T03:50:06;3.27;;;2.97;;
4766;SDS011;2397;53.576;9.746;2023-11-22T03:52:33;6.20;;;3.10;;
4766;SDS011;2397;53.576;9.746;2023-11-22T03:54:59;3.40;;;2.90;;
4766;SDS011;2397;53.576;9.746;2023-11-22T03:57:26;4.20;;;3.30;;
4766;SDS011;2397;53.576;9.746;2023-11-22T03:59:53;5.10;;;3.23;;
4766;SDS011;2397;53.576;9.746;2023-11-22T04:02:19;3.13;;;2.83;;
4766;SDS011;2397;53.576;9.746;2023-11-22T04:04:46;3.67;;;3.37;;
4766;SDS011;2397;53.576;9.746;2023-11-22T04:07:13;3.20;;;2.90;;
4766;SDS011;2397;53.576;9.746;2023-11-22T04:09:40;3.40;;;2.90;;
4766;SDS011;2397;53.576;9.746;2023-11-22T04:12:06;3.67;;;2.83;;
4766;SDS011;2397;53.576;9.746;2023-11-22T04:14:33;3.03;;;2.70;;
4766;SDS011;2397;53.576;9.746;2023-11-22T04:17:00;2.53;;;2.33;;
4766;SDS011;2397;53.576;9.746;2023-11-22T04:19:27;4.73;;;3.23;;
4766;SDS011;2397;53.576;9.746;2023-11-22T04:21:53;3.53;;;2.90;;
4766;SDS011;2397;53.576;9.746;2023-11-22T04:24:20;3.03;;;2.43;;
4766;SDS011;2397;53.576;9.746;2023-11-22T04:26:47;6.73;;;3.30;;
4766;SDS011;2397;53.576;9.746;2023-11-22T04:29:14;4.17;;;3.00;;
4766;SDS011;2397;53.576;9.746;2023-11-22T04:31:42;4.50;;;3.13;;
4766;SDS011;2397;53.576;9.746;2023-11-22T04:34:09;4.50;;;3.10;;
4766;SDS011;2397;53.576;9.746;2023-11-22T04:36:35;3.57;;;2.97;;
4766;SDS011;2397;53.576;9.746;2023-11-22T04:39:02;3.80;;;3.07;;
4766;SDS011;2397;53.576;9.746;2023-11-22T04:41:30;3.40;;;3.10;;
4766;SDS011;2397;53.576;9.746;2023-11-22T04:43:56;3.23;;;2.93;;
4766;SDS011;2397;53.576;9.746;2023-11-22T04:46:23;7.20;;;3.10;;
4766;SDS011;2397;53.576;9.746;2023-11-22T04:48:50;3.67;;;3.07;;
4766;SDS011;2397;53.576;9.746;2023-11-22T04:51:17;3.47;;;2.60;;
4766;SDS011;2397;53.576;9.746;2023-11-22T04:53:44;4.10;;;3.53;;
4766;SDS011;2397;53.576;9.746;2023-11-22T04:56:11;4.53;;;3.20;;
4766;SDS011;2397;53.576;9.746;2023-11-22T04:58:37;4.50;;;3.37;;
4766;SDS011;2397;53.576;9.746;2023-11-22T05:01:04;3.50;;;3.20;;
4766;SDS011;2397;53.576;9.746;2023-11-22T05:03:30;3.87;;;3.03;;
4766;SDS011;2397;53.576;9.746;2023-11-22T05:05:57;3.90;;;3.13;;
4766;SDS011;2397;53.576;9.746;2023-11-22T05:08:24;4.80;;;3.20;;
4766;SDS011;2397;53.576;9.746;2023-11-22T05:10:51;4.67;;;3.80;;
4766;SDS011;2397;53.576;9.746;2023-11-22T05:13:20;3.20;;;2.83;;
4766;SDS011;2397;53.576;9.746;2023-11-22T05:15:47;4.73;;;3.40;;
4766;SDS011;2397;53.576;9.746;2023-11-22T05:18:13;3.60;;;3.27;;
4766;SDS011;2397;53.576;9.746;2023-11-22T05:20:40;3.23;;;2.93;;
4766;SDS011;2397;53.576;9.746;2023-11-22T05:23:07;4.97;;;3.30;;
4766;SDS011;2397;53.576;9.746;2023-11-22T05:25:33;8.50;;;2.67;;
4766;SDS011;2397;53.576;9.746;2023-11-22T05:28:00;4.07;;;3.63;;
4766;SDS011;2397;53.576;9.746;2023-11-22T05:30:26;4.00;;;3.40;;
4766;SDS011;2397;53.576;9.746;2023-11-22T05:32:53;3.63;;;2.93;;
4766;SDS011;2397;53.576;9.746;2023-11-22T05:35:20;3.20;;;2.87;;
4766;SDS011;2397;53.576;9.746;2023-11-22T05:37:47;4.37;;;3.97;;
4766;SDS011;2397;53.576;9.746;2023-11-22T05:40:14;4.83;;;3.80;;
4766;SDS011;2397;53.576;9.746;2023-11-22T05:42:42;3.23;;;2.90;;
4766;SDS011;2397;53.576;9.746;2023-11-22T05:45:09;4.80;;;3.43;;
4766;SDS011;2397;53.576;9.746;2023-11-22T05:47:35;5.57;;;3.20;;
4766;SDS011;2397;53.576;9.746;2023-11-22T05:50:02;3.27;;;2.87;;
4766;SDS011;2397;53.576;9.746;2023-11-22T05:52:29;4.23;;;2.83;;
4766;SDS011;2397;53.576;9.746;2023-11-22T05:54:56;4.90;;;2.93;;
4766;SDS011;2397;53.576;9.746;2023-11-22T05:57:22;4.20;;;3.20;;
4766;SDS011;2397;53.576;9.746;2023-11-22T05:59:49;4.43;;;2.90;;
4766;SDS011;2397;53.576;9.746;2023-11-22T06:02:16;4.27;;;2.80;;
4766;SDS011;2397;53.576;9.746;2023-11-22T06:04:42;4.40;;;3.10;;
4766;SDS011;2397;53.576;9.746;2023-11-22T06:07:09;5.33;;;3.23;;
4766;SDS011;2397;53.576;9.746;2023-11-22T06:09:36;5.37;;;3.17;;
4766;SDS011;2397;53.576;9.746;2023-11-22T06:12:02;5.00;;;3.07;;
4766;SDS011;2397;53.576;9.746;2023-11-22T06:14:29;4.03;;;2.90;;
4766;SDS011;2397;53.576;9.746;2023-11-22T06:16:55;3.23;;;2.60;;
4766;SDS011;2397;53.576;9.746;2023-11-22T06:19:22;3.87;;;2.67;;
4766;SDS011;2397;53.576;9.746;2023-11-22T06:21:49;2.83;;;2.40;;
4766;SDS011;2397;53.576;9.746;2023-11-22T06:24:16;5.63;;;3.77;;
4766;SDS011;2397;53.576;9.746;2023-11-22T06:26:43;9.23;;;2.80;;
4766;SDS011;2397;53.576;9.746;2023-11-22T06:29:10;3.40;;;3.00;;
4766;SDS011;2397;53.576;9.746;2023-11-22T06:31:36;3.67;;;2.80;;
4766;SDS011;2397;53.576;9.746;2023-11-22T06:34:03;6.37;;;3.27;;
4766;SDS011;2397;53.576;9.746;2023-11-22T06:36:30;3.90;;;3.40;;
4766;SDS011;2397;53.576;9.746;2023-11-22T06:38:56;4.50;;;3.10;;
4766;SDS011;2397;53.576;9.746;2023-11-22T06:41:23;6.00;;;3.83;;
4766;SDS011;2397;53.576;9.746;2023-11-22T06:43:49;3.27;;;2.90;;
4766;SDS011;2397;53.576;9.746;2023-11-22T06:46:16;3.40;;;3.10;;
4766;SDS011;2397;53.576;9.746;2023-11-22T06:48:42;4.30;;;3.33;;
4766;SDS011;2397;53.576;9.746;2023-11-22T06:51:15;5.97;;;3.13;;
4766;SDS011;2397;53.576;9.746;2023-11-22T06:53:42;3.90;;;3.47;;
4766;SDS011;2397;53.576;9.746;2023-11-22T06:56:08;4.40;;;3.67;;
4766;SDS011;2397;53.576;9.746;2023-11-22T06:58:36;5.23;;;3.10;;
4766;SDS011;2397;53.576;9.746;2023-11-22T07:01:03;7.50;;;3.60;;
4766;SDS011;2397;53.576;9.746;2023-11-22T07:03:30;5.17;;;3.80;;
4766;SDS011;2397;53.576;9.746;2023-11-22T07:05:57;3.37;;;2.90;;
4766;SDS011;2397;53.576;9.746;2023-11-22T07:08:25;3.93;;;3.20;;
4766;SDS011;2397;53.576;9.746;2023-11-22T07:10:53;7.50;;;2.97;;
4766;SDS011;2397;53.576;9.746;2023-11-22T07:13:19;4.13;;;3.10;;
4766;SDS011;2397;53.576;9.746;2023-11-22T07:15:47;6.60;;;3.87;;
4766;SDS011;2397;53.576;9.746;2023-11-22T07:18:14;6.53;;;3.43;;
4766;SDS011;2397;53.576;9.746;2023-11-22T07:20:42;4.60;;;3.80;;
4766;SDS011;2397;53.576;9.746;2023-11-22T07:23:09;5.50;;;4.63;;
4766;SDS011;2397;53.576;9.746;2023-11-22T07:25:40;5.17;;;3.80;;
4766;SDS011;2397;53.576;9.746;2023-11-22T07:28:07;16.17;;;3.80;;
4766;SDS011;2397;53.576;9.746;2023-11-22T07:30:34;5.63;;;4.20;;
4766;SDS011;2397;53.576;9.746;2023-11-22T07:33:05;7.50;;;4.37;;
4766;SDS011;2397;53.576;9.746;2023-11-22T07:35:32;4.30;;;3.90;;
4766;SDS011;2397;53.576;9.746;2023-11-22T07:37:59;6.60;;;4.87;;
4766;SDS011;2397;53.576;9.746;2023-11-22T07:40:26;8.33;;;4.07;;
4766;SDS011;2397;53.576;9.746;2023-11-22T07:42:53;4.87;;;4.13;;
4766;SDS011;2397;53.576;9.746;2023-11-22T07:45:21;5.53;;;4.70;;
4766;SDS011;2397;53.576;9.746;2023-11-22T07:47:48;7.10;;;4.73;;
4766;SDS011;2397;53.576;9.746;2023-11-22T07:50:15;7.90;;;4.60;;
4766;SDS011;2397;53.576;9.746;2023-11-22T07:52:42;6.03;;;4.30;;
4766;SDS011;2397;53.576;9.746;2023-11-22T07:55:10;8.00;;;3.93;;
4766;SDS011;2397;53.576;9.746;2023-11-22T07:57:37;6.23;;;4.60;;
4766;SDS011;2397;53.576;9.746;2023-11-22T08:00:05;5.67;;;4.20;;
4766;SDS011;2397;53.576;9.746;2023-11-22T08:02:39;7.40;;;4.80;;
4766;SDS011;2397;53.576;9.746;2023-11-22T08:05:06;6.63;;;5.20;;
4766;SDS011;2397;53.576;9.746;2023-11-22T08:07:35;12.70;;;4.50;;
4766;SDS011;2397;53.576;9.746;2023-11-22T08:10:05;8.77;;;4.70;;
4766;SDS011;2397;53.576;9.746;2023-11-22T08:12:36;9.50;;;5.10;;
4766;SDS011;2397;53.576;9.746;2023-11-22T08:15:04;6.87;;;4.20;;
4766;SDS011;2397;53.576;9.746;2023-11-22T08:17:31;6.90;;;5.10;;
4766;SDS011;2397;53.576;9.746;2023-11-22T08:19:59;6.30;;;4.93;;
4766;SDS011;2397;53.576;9.746;2023-11-22T08:22:26;8.90;;;5.60;;
4766;SDS011;2397;53.576;9.746;2023-11-22T08:24:55;10.83;;;5.40;;
4766;SDS011;2397;53.576;9.746;2023-11-22T08:27:23;7.10;;;4.90;;
4766;SDS011;2397;53.576;9.746;2023-11-22T08:29:50;8.23;;;5.33;;
4766;SDS011;2397;53.576;9.746;2023-11-22T08:32:17;6.90;;;5.73;;
4766;SDS011;2397;53.576;9.746;2023-11-22T08:34:47;5.40;;;4.77;;
4766;SDS011;2397;53.576;9.746;2023-11-22T08:37:13;7.27;;;4.57;;
4766;SDS011;2397;53.576;9.746;2023-11-22T08:39:40;7.30;;;5.07;;
4766;SDS011;2397;53.576;9.746;2023-11-22T08:42:06;6.00;;;4.60;;
4766;SDS011;2397;53.576;9.746;2023-11-22T08:44:36;7.57;;;5.27;;
4766;SDS011;2397;53.576;9.746;2023-11-22T08:47:03;5.67;;;4.80;;
4766;SDS011;2397;53.576;9.746;2023-11-22T08:49:29;5.13;;;4.33;;
4766;SDS011;2397;53.576;9.746;2023-11-22T08:51:56;6.50;;;4.63;;
4766;SDS011;2397;53.576;9.746;2023-11-22T08:54:25;5.53;;;4.87;;
4766;SDS011;2397;53.576;9.746;2023-11-22T08:57:00;5.07;;;4.43;;
4766;SDS011;2397;53.576;9.746;2023-11-22T08:59:26;7.10;;;5.53;;
4766;SDS011;2397;53.576;9.746;2023-11-22T09:01:53;8.00;;;5.37;;
4766;SDS011;2397;53.576;9.746;2023-11-22T09:04:20;5.60;;;4.83;;
4766;SDS011;2397;53.576;9.746;2023-11-22T09:06:46;6.87;;;5.17;;
4766;SDS011;2397;53.576;9.746;2023-11-22T09:09:13;6.80;;;4.40;;
4766;SDS011;2397;53.576;9.746;2023-11-22T09:11:41;7.40;;;5.30;;
4766;SDS011;2397;53.576;9.746;2023-11-22T09:14:08;6.33;;;5.60;;
4766;SDS011;2397;53.576;9.746;2023-11-22T09:16:36;5.90;;;4.87;;
4766;SDS011;2397;53.576;9.746;2023-11-22T09:19:05;7.73;;;4.80;;
4766;SDS011;2397;53.576;9.746;2023-11-22T09:21:34;4.93;;;4.40;;
4766;SDS011;2397;53.576;9.746;2023-11-22T09:24:01;12.00;;;4.63;;
4766;SDS011;2397;53.576;9.746;2023-11-22T09:26:28;7.90;;;4.83;;
4766;SDS011;2397;53.576;9.746;2023-11-22T09:28:55;5.83;;;4.77;;
4766;SDS011;2397;53.576;9.746;2023-11-22T09:31:22;8.57;;;5.03;;
4766;SDS011;2397;53.576;9.746;2023-11-22T09:33:49;9.43;;;5.57;;
4766;SDS011;2397;53.576;9.746;2023-11-22T09:36:16;5.77;;;5.20;;
4766;SDS011;2397;53.576;9.746;2023-11-22T09:38:44;6.57;;;4.97;;
4766;SDS011;2397;53.576;9.746;2023-11-22T09:41:11;7.20;;;4.93;;
4766;SDS011;2397;53.576;9.746;2023-11-22T09:43:38;6.13;;;4.70;;
4766;SDS011;2397;53.576;9.746;2023-11-22T09:46:06;6.10;;;4.97;;
4766;SDS011;2397;53.576;9.746;2023-11-22T09:48:39;7.33;;;4.53;;
4766;SDS011;2397;53.576;9.746;2023-11-22T09:53:40;4.47;;;4.07;;
4766;SDS011;2397;53.576;9.746;2023-11-22T09:56:13;4.53;;;4.10;;
4766;SDS011;2397;53.576;9.746;2023-11-22T09:58:41;4.90;;;4.40;;
4766;SDS011;2397;53.576;9.746;2023-11-22T10:01:11;4.83;;;4.17;;
4766;SDS011;2397;53.576;9.746;2023-11-22T10:03:39;5.20;;;4.57;;
4766;SDS011;2397;53.576;9.746;2023-11-22T10:06:08;7.80;;;4.43;;
4766;SDS011;2397;53.576;9.746;2023-11-22T10:08:34;8.40;;;4.70;;
4766;SDS011;2397;53.576;9.746;2023-11-22T10:11:03;7.10;;;4.73;;
4766;SDS011;2397;53.576;9.746;2023-11-22T10:13:30;5.07;;;4.27;;
4766;SDS011;2397;53.576;9.746;2023-11-22T10:15:57;5.10;;;4.57;;
4766;SDS011;2397;53.576;9.746;2023-11-22T10:18:39;8.53;;;4.63;;
4766;SDS011;2397;53.576;9.746;2023-11-22T10:21:19;8.90;;;4.27;;
4766;SDS011;2397;53.576;9.746;2023-11-22T10:23:54;7.20;;;4.43;;
4766;SDS011;2397;53.576;9.746;2023-11-22T10:26:23;7.27;;;4.00;;
4766;SDS011;2397;53.576;9.746;2023-11-22T10:28:51;6.13;;;5.17;;
4766;SDS011;2397;53.576;9.746;2023-11-22T10:31:19;13.63;;;4.27;;
4766;SDS011;2397;53.576;9.746;2023-11-22T10:33:46;4.90;;;4.37;;
4766;SDS011;2397;53.576;9.746;2023-11-22T10:36:12;5.27;;;4.40;;
4766;SDS011;2397;53.576;9.746;2023-11-22T10:38:41;8.93;;;4.63;;
4766;SDS011;2397;53.576;9.746;2023-11-22T10:41:12;8.77;;;5.33;;
4766;SDS011;2397;53.576;9.746;2023-11-22T10:43:40;7.80;;;4.70;;
4766;SDS011;2397;53.576;9.746;2023-11-22T10:46:08;4.47;;;3.90;;
4766;SDS011;2397;53.576;9.746;2023-11-22T10:48:39;7.97;;;4.43;;
4766;SDS011;2397;53.576;9.746;2023-11-22T10:51:06;6.20;;;4.47;;
4766;SDS011;2397;53.576;9.746;2023-11-22T10:53:41;5.73;;;4.53;;
4766;SDS011;2397;53.576;9.746;2023-11-22T10:56:16;7.13;;;4.30;;
4766;SDS011;2397;53.576;9.746;2023-11-22T10:58:50;6.40;;;4.90;;
4766;SDS011;2397;53.576;9.746;2023-11-22T11:01:23;7.20;;;4.83;;
4766;SDS011;2397;53.576;9.746;2023-11-22T11:04:08;5.57;;;4.67;;
4766;SDS011;2397;53.576;9.746;2023-11-22T11:06:38;5.57;;;4.00;;
4766;SDS011;2397;53.576;9.746;2023-11-22T11:09:06;6.60;;;4.67;;
4766;SDS011;2397;53.576;9.746;2023-11-22T11:11:35;5.60;;;3.80;;
4766;SDS011;2397;53.576;9.746;2023-11-22T11:14:08;6.43;;;4.80;;
4766;SDS011;2397;53.576;9.746;2023-11-22T11:16:38;4.53;;;3.80;;
4766;SDS011;2397;53.576;9.746;2023-11-22T11:19:08;5.90;;;4.00;;
4766;SDS011;2397;53.576;9.746;2023-11-22T11:21:36;4.93;;;4.43;;
4766;SDS011;2397;53.576;9.746;2023-11-22T11:24:02;5.30;;;4.07;;
4766;SDS011;2397;53.576;9.746;2023-11-22T11:26:32;3.53;;;2.93;;
4766;SDS011;2397;53.576;9.746;2023-11-22T11:29:01;5.00;;;3.73;;
4766;SDS011;2397;53.576;9.746;2023-11-22T11:31:33;6.20;;;3.23;;
4766;SDS011;2397;53.576;9.746;2023-11-22T11:34:06;4.73;;;3.60;;
4766;SDS011;2397;53.576;9.746;2023-11-22T11:36:33;5.00;;;3.30;;
4766;SDS011;2397;53.576;9.746;2023-11-22T11:39:05;3.53;;;3.23;;
4766;SDS011;2397;53.576;9.746;2023-11-22T11:41:38;4.47;;;3.90;;
4766;SDS011;2397;53.576;9.746;2023-11-22T11:44:09;3.90;;;3.40;;
4766;SDS011;2397;53.576;9.746;2023-11-22T11:46:37;4.50;;;3.30;;
4766;SDS011;2397;53.576;9.746;2023-11-22T11:49:09;4.80;;;3.83;;
4766;SDS011;2397;53.576;9.746;2023-11-22T11:51:40;6.57;;;3.43;;
4766;SDS011;2397;53.576;9.746;2023-11-22T11:54:07;5.40;;;3.20;;
4766;SDS011;2397;53.576;9.746;2023-11-22T11:56:35;3.20;;;2.37;;
4766;SDS011;2397;53.576;9.746;2023-11-22T11:59:03;5.57;;;3.00;;
4766;SDS011;2397;53.576;9.746;2023-11-22T12:01:30;2.80;;;2.50;;
4766;SDS011;2397;53.576;9.746;2023-11-22T12:04:02;3.07;;;2.77;;
4766;SDS011;2397;53.576;9.746;2023-11-22T12:06:29;4.47;;;2.87;;
4766;SDS011;2397;53.576;9.746;2023-11-22T12:09:00;3.63;;;2.70;;
4766;SDS011;2397;53.576;9.746;2023-11-22T12:11:27;2.53;;;2.33;;
4766;SDS011;2397;53.576;9.746;2023-11-22T12:13:54;3.47;;;2.60;;
4766;SDS011;2397;53.576;9.746;2023-11-22T12:16:21;3.00;;;2.70;;
4766;SDS011;2397;53.576;9.746;2023-11-22T12:18:48;2.70;;;2.33;;
4766;SDS011;2397;53.576;9.746;2023-11-22T12:21:16;3.60;;;2.20;;
4766;SDS011;2397;53.576;9.746;2023-11-22T12:23:44;3.50;;;2.60;;
4766;SDS011;2397;53.576;9.746;2023-11-22T12:26:15;3.20;;;2.90;;
4766;SDS011;2397;53.576;9.746;2023-11-22T12:28:47;4.43;;;2.70;;
4766;SDS011;2397;53.576;9.746;2023-11-22T12:31:29;2.33;;;2.13;;
4766;SDS011;2397;53.576;9.746;2023-11-22T12:34:00;2.77;;;2.40;;
4766;SDS011;2397;53.576;9.746;2023-11-22T12:36:28;3.00;;;2.70;;
4766;SDS011;2397;53.576;9.746;2023-11-22T12:38:55;3.50;;;2.50;;
4766;SDS011;2397;53.576;9.746;2023-11-22T12:41:26;2.70;;;2.07;;
4766;SDS011;2397;53.576;9.746;2023-11-22T12:44:05;2.07;;;1.93;;
4766;SDS011;2397;53.576;9.746;2023-11-22T12:46:51;3.30;;;2.97;;
4766;SDS011;2397;53.576;9.746;2023-11-22T12:49:27;4.20;;;3.07;;
4766;SDS011;2397;53.576;9.746;2023-11-22T12:51:55;2.83;;;2.50;;
4766;SDS011;2397;53.576;9.746;2023-11-22T12:54:24;2.73;;;2.30;;
4766;SDS011;2397;53.576;9.746;2023-11-22T12:56:51;4.60;;;2.57;;
4766;SDS011;2397;53.576;9.746;2023-11-22T12:59:24;2.90;;;2.57;;
4766;SDS011;2397;53.576;9.746;2023-11-22T13:01:54;3.50;;;2.30;;
4766;SDS011;2397;53.576;9.746;2023-11-22T13:04:20;8.43;;;2.60;;
4766;SDS011;2397;53.576;9.746;2023-11-22T13:06:47;2.13;;;1.93;;
4766;SDS011;2397;53.576;9.746;2023-11-22T13:09:14;2.77;;;2.27;;
4766;SDS011;2397;53.576;9.746;2023-11-22T13:11:42;2.53;;;2.33;;
4766;SDS011;2397;53.576;9.746;2023-11-22T13:14:09;2.30;;;2.10;;
4766;SDS011;2397;53.576;9.746;2023-11-22T13:16:36;3.57;;;2.30;;
4766;SDS011;2397;53.576;9.746;2023-11-22T13:19:05;2.80;;;2.60;;
4766;SDS011;2397;53.576;9.746;2023-11-22T13:21:32;3.23;;;2.40;;
4766;SDS011;2397;53.576;9.746;2023-11-22T13:23:59;2.63;;;1.70;;
4766;SDS011;2397;53.576;9.746;2023-11-22T13:26:26;2.67;;;2.40;;
4766;SDS011;2397;53.576;9.746;2023-11-22T13:28:53;6.07;;;2.53;;
4766;SDS011;2397;53.576;9.746;2023-11-22T13:31:22;3.10;;;2.00;;
4766;SDS011;2397;53.576;9.746;2023-11-22T13:33:48;2.20;;;2.00;;
4766;SDS011;2397;53.576;9.746;2023-11-22T13:36:15;2.67;;;2.07;;
4766;SDS011;2397;53.576;9.746;2023-11-22T13:38:41;3.30;;;2.57;;
4766;SDS011;2397;53.576;9.746;2023-11-22T13:41:08;4.83;;;2.27;;
4766;SDS011;2397;53.576;9.746;2023-11-22T13:43:35;2.27;;;2.07;;
4766;SDS011;2397;53.576;9.746;2023-11-22T13:46:01;2.90;;;2.60;;
4766;SDS011;2397;53.576;9.746;2023-11-22T13:48:28;2.70;;;2.13;;
4766;SDS011;2397;53.576;9.746;2023-11-22T13:50:55;2.30;;;1.97;;
4766;SDS011;2397;53.576;9.746;2023-11-22T13:53:22;2.50;;;2.30;;
4766;SDS011;2397;53.576;9.746;2023-11-22T13:55:49;2.70;;;2.43;;
4766;SDS011;2397;53.576;9.746;2023-11-22T13:58:20;2.90;;;2.37;;
4766;SDS011;2397;53.576;9.746;2023-11-22T14:00:47;3.00;;;2.63;;
4766;SDS011;2397;53.576;9.746;2023-11-22T14:03:15;4.40;;;2.83;;
4766;SDS011;2397;53.576;9.746;2023-11-22T14:05:43;3.07;;;2.30;;
4766;SDS011;2397;53.576;9.746;2023-11-22T14:08:10;2.30;;;2.10;;
4766;SDS011;2397;53.576;9.746;2023-11-22T14:10:36;2.30;;;2.10;;
4766;SDS011;2397;53.576;9.746;2023-11-22T14:13:03;3.10;;;2.77;;
4766;SDS011;2397;53.576;9.746;2023-11-22T14:15:31;2.43;;;2.23;;
4766;SDS011;2397;53.576;9.746;2023-11-22T14:17:58;3.77;;;2.77;;
4766;SDS011;2397;53.576;9.746;2023-11-22T14:20:25;6.60;;;2.43;;
4766;SDS011;2397;53.576;9.746;2023-11-22T14:22:52;3.37;;;2.30;;
4766;SDS011;2397;53.576;9.746;2023-11-22T14:25:19;2.77;;;2.10;;
4766;SDS011;2397;53.576;9.746;2023-11-22T14:27:47;3.90;;;2.67;;
4766;SDS011;2397;53.576;9.746;2023-11-22T14:30:19;3.57;;;2.53;;
4766;SDS011;2397;53.576;9.746;2023-11-22T14:32:47;4.43;;;2.80;;
4766;SDS011;2397;53.576;9.746;2023-11-22T14:35:14;4.80;;;2.70;;
4766;SDS011;2397;53.576;9.746;2023-11-22T14:37:41;2.47;;;2.20;;
4766;SDS011;2397;53.576;9.746;2023-11-22T14:40:09;3.00;;;2.33;;
4766;SDS011;2397;53.576;9.746;2023-11-22T14:42:43;3.50;;;2.30;;
4766;SDS011;2397;53.576;9.746;2023-11-22T14:45:19;4.00;;;2.70;;
4766;SDS011;2397;53.576;9.746;2023-11-22T14:47:48;3.60;;;2.40;;
4766;SDS011;2397;53.576;9.746;2023-11-22T14:50:18;2.63;;;2.30;;
4766;SDS011;2397;53.576;9.746;2023-11-22T14:52:46;3.60;;;2.67;;
4766;SDS011;2397;53.576;9.746;2023-11-22T14:55:15;5.53;;;2.20;;
4766;SDS011;2397;53.576;9.746;2023-11-22T14:57:42;2.43;;;2.23;;
4766;SDS011;2397;53.576;9.746;2023-11-22T15:00:10;1.90;;;1.80;;
4766;SDS011;2397;53.576;9.746;2023-11-22T15:02:40;2.43;;;2.23;;
4766;SDS011;2397;53.576;9.746;2023-11-22T15:05:14;3.10;;;2.77;;
4766;SDS011;2397;53.576;9.746;2023-11-22T15:07:40;3.03;;;2.23;;
4766;SDS011;2397;53.576;9.746;2023-11-22T15:10:09;2.43;;;2.03;;
4766;SDS011;2397;53.576;9.746;2023-11-22T15:12:37;2.17;;;1.97;;
4766;SDS011;2397;53.576;9.746;2023-11-22T15:15:06;2.77;;;2.40;;
4766;SDS011;2397;53.576;9.746;2023-11-22T15:17:34;5.80;;;2.50;;
4766;SDS011;2397;53.576;9.746;2023-11-22T15:20:01;3.40;;;2.30;;
4766;SDS011;2397;53.576;9.746;2023-11-22T15:22:28;3.07;;;2.77;;